sensor_id;sensor_type;location;lat;lon;timestamp;temperature;humidity
10384;DHT22;5238;43.508;4.980;2023-12-20T00:01:20;8.60;91.30
10384;DHT22;5238;43.508;4.980;2023-12-20T00:03:47;8.60;91.30
10384;DHT22;5238;43.508;4.980;2023-12-20T00:06:14;8.50;91.30
10384;DHT22;5238;43.508;4.980;2023-12-20T00:08:41;8.60;91.30
10384;DHT22;5238;43.508;4.980;2023-12-20T00:11:09;8.60;91.30
10384;DHT22;5238;43.508;4.980;2023-12-20T00:13:36;8.60;91.30
10384;DHT22;5238;43.508;4.980;2023-12-20T00:16:04;8.60;91.30
10384;DHT22;5238;43.508;4.980;2023-12-20T00:18:32;8.60;91.30
10384;DHT22;5238;43.508;4.980;2023-12-20T00:20:59;8.60;91.30
10384;DHT22;5238;43.508;4.980;2023-12-20T00:23:26;8.60;91.30
10384;DHT22;5238;43.508;4.980;2023-12-20T00:25:53;8.70;91.30
10384;DHT22;5238;43.508;4.980;2023-12-20T00:28:20;8.70;91.30
10384;DHT22;5238;43.508;4.980;2023-12-20T00:30:47;8.70;91.30
10384;DHT22;5238;43.508;4.980;2023-12-20T00:33:14;8.70;91.30
10384;DHT22;5238;43.508;4.980;2023-12-20T00:35:42;8.70;91.30
10384;DHT22;5238;43.508;4.980;2023-12-20T00:38:09;8.70;91.30
10384;DHT22;5238;43.508;4.980;2023-12-20T00:40:37;8.80;91.30
10384;DHT22;5238;43.508;4.980;2023-12-20T00:43:04;8.80;91.30
10384;DHT22;5238;43.508;4.980;2023-12-20T00:45:31;8.80;91.30
10384;DHT22;5238;43.508;4.980;2023-12-20T00:47:58;8.80;91.30
10384;DHT22;5238;43.508;4.980;2023-12-20T00:50:25;8.80;91.30
10384;DHT22;5238;43.508;4.980;2023-12-20T00:52:53;8.80;91.30
10384;DHT22;5238;43.508;4.980;2023-12-20T00:55:21;8.80;91.30
10384;DHT22;5238;43.508;4.980;2023-12-20T00:57:48;8.80;91.30
10384;DHT22;5238;43.508;4.980;2023-12-20T01:00:16;8.80;91.30
10384;DHT22;5238;43.508;4.980;2023-12-20T01:02:43;8.80;91.30
10384;DHT22;5238;43.508;4.980;2023-12-20T01:05:12;8.80;91.30
10384;DHT22;5238;43.508;4.980;2023-12-20T01:07:39;8.80;91.30
10384;DHT22;5238;43.508;4.980;2023-12-20T01:10:08;8.80;91.30
10384;DHT22;5238;43.508;4.980;2023-12-20T01:12:36;8.80;91.30
10384;DHT22;5238;43.508;4.980;2023-12-20T01:15:03;8.80;91.30
10384;DHT22;5238;43.508;4.980;2023-12-20T01:17:30;8.80;91.30
10384;DHT22;5238;43.508;4.980;2023-12-20T01:19:57;8.90;91.30
10384;DHT22;5238;43.508;4.980;2023-12-20T01:22:24;8.90;91.30
10384;DHT22;5238;43.508;4.980;2023-12-20T01:24:51;8.80;91.30
10384;DHT22;5238;43.508;4.980;2023-12-20T01:27:20;8.80;91.30
10384;DHT22;5238;43.508;4.980;2023-12-20T01:29:47;8.80;91.30
10384;DHT22;5238;43.508;4.980;2023-12-20T01:32:14;8.80;91.30
10384;DHT22;5238;43.508;4.980;2023-12-20T01:34:41;8.80;91.30
10384;DHT22;5238;43.508;4.980;2023-12-20T01:37:08;8.80;91.30
10384;DHT22;5238;43.508;4.980;2023-12-20T01:39:35;8.80;91.30
10384;DHT22;5238;43.508;4.980;2023-12-20T01:42:02;8.80;91.30
10384;DHT22;5238;43.508;4.980;2023-12-20T01:44:30;8.80;91.30
10384;DHT22;5238;43.508;4.980;2023-12-20T01:46:58;8.80;91.30
10384;DHT22;5238;43.508;4.980;2023-12-20T01:49:25;8.80;91.30
10384;DHT22;5238;43.508;4.980;2023-12-20T01:51:52;8.80;91.30
10384;DHT22;5238;43.508;4.980;2023-12-20T01:54:19;8.80;91.30
10384;DHT22;5238;43.508;4.980;2023-12-20T01:56:49;8.80;91.30
10384;DHT22;5238;43.508;4.980;2023-12-20T01:59:18;8.80;91.30
10384;DHT22;5238;43.508;4.980;2023-12-20T02:01:47;8.80;91.30
10384;DHT22;5238;43.508;4.980;2023-12-20T02:04:15;8.80;91.30
10384;DHT22;5238;43.508;4.980;2023-12-20T02:06:42;8.70;91.30
10384;DHT22;5238;43.508;4.980;2023-12-20T02:09:10;8.70;91.30
10384;DHT22;5238;43.508;4.980;2023-12-20T02:11:37;8.70;91.30
10384;DHT22;5238;43.508;4.980;2023-12-20T02:14:04;8.70;91.30
10384;DHT22;5238;43.508;4.980;2023-12-20T02:16:32;8.70;91.30
10384;DHT22;5238;43.508;4.980;2023-12-20T02:19:00;8.70;91.30
10384;DHT22;5238;43.508;4.980;2023-12-20T02:21:33;8.70;91.30
10384;DHT22;5238;43.508;4.980;2023-12-20T02:24:00;8.70;91.30
10384;DHT22;5238;43.508;4.980;2023-12-20T02:26:27;8.70;91.30
10384;DHT22;5238;43.508;4.980;2023-12-20T02:28:55;8.70;91.30
10384;DHT22;5238;43.508;4.980;2023-12-20T02:31:23;8.70;91.30
10384;DHT22;5238;43.508;4.980;2023-12-20T02:33:50;8.80;91.30
10384;DHT22;5238;43.508;4.980;2023-12-20T02:36:17;8.80;91.30
10384;DHT22;5238;43.508;4.980;2023-12-20T02:38:45;8.80;91.30
10384;DHT22;5238;43.508;4.980;2023-12-20T02:41:12;8.80;91.30
10384;DHT22;5238;43.508;4.980;2023-12-20T02:43:41;8.80;91.30
10384;DHT22;5238;43.508;4.980;2023-12-20T02:46:08;8.80;91.30
10384;DHT22;5238;43.508;4.980;2023-12-20T02:48:35;8.80;91.30
10384;DHT22;5238;43.508;4.980;2023-12-20T02:51:02;8.90;91.30
10384;DHT22;5238;43.508;4.980;2023-12-20T02:53:29;8.90;91.30
10384;DHT22;5238;43.508;4.980;2023-12-20T02:55:58;8.90;91.30
10384;DHT22;5238;43.508;4.980;2023-12-20T02:58:25;8.90;91.30
10384;DHT22;5238;43.508;4.980;2023-12-20T03:00:52;8.90;91.30
10384;DHT22;5238;43.508;4.980;2023-12-20T03:03:19;8.90;91.30
10384;DHT22;5238;43.508;4.980;2023-12-20T03:05:46;8.80;91.30
10384;DHT22;5238;43.508;4.980;2023-12-20T03:08:13;8.80;91.30
10384;DHT22;5238;43.508;4.980;2023-12-20T03:10:40;8.90;91.30
10384;DHT22;5238;43.508;4.980;2023-12-20T03:13:09;9.00;91.30
10384;DHT22;5238;43.508;4.980;2023-12-20T03:15:36;9.10;91.30
10384;DHT22;5238;43.508;4.980;2023-12-20T03:18:03;9.20;91.30
10384;DHT22;5238;43.508;4.980;2023-12-20T03:20:30;9.30;91.30
10384;DHT22;5238;43.508;4.980;2023-12-20T03:22:59;9.40;91.30
10384;DHT22;5238;43.508;4.980;2023-12-20T03:25:26;9.50;91.30
10384;DHT22;5238;43.508;4.980;2023-12-20T03:27:53;9.60;91.30
10384;DHT22;5238;43.508;4.980;2023-12-20T03:30:22;9.70;91.30
10384;DHT22;5238;43.508;4.980;2023-12-20T03:32:49;9.80;91.30
10384;DHT22;5238;43.508;4.980;2023-12-20T03:35:16;9.90;91.30
10384;DHT22;5238;43.508;4.980;2023-12-20T03:37:43;10.00;91.30
10384;DHT22;5238;43.508;4.980;2023-12-20T03:40:10;10.10;91.30
10384;DHT22;5238;43.508;4.980;2023-12-20T03:42:37;10.20;91.30
10384;DHT22;5238;43.508;4.980;2023-12-20T03:45:05;10.30;91.30
10384;DHT22;5238;43.508;4.980;2023-12-20T03:47:33;10.40;91.30
10384;DHT22;5238;43.508;4.980;2023-12-20T03:50:00;10.40;91.30
10384;DHT22;5238;43.508;4.980;2023-12-20T03:52:28;10.60;91.30
10384;DHT22;5238;43.508;4.980;2023-12-20T03:54:54;10.60;91.30
10384;DHT22;5238;43.508;4.980;2023-12-20T03:57:21;10.70;91.30
10384;DHT22;5238;43.508;4.980;2023-12-20T03:59:48;10.70;91.30
10384;DHT22;5238;43.508;4.980;2023-12-20T04:02:15;10.80;91.30
10384;DHT22;5238;43.508;4.980;2023-12-20T04:04:45;10.80;91.30
10384;DHT22;5238;43.508;4.980;2023-12-20T04:07:10;10.90;91.30
10384;DHT22;5238;43.508;4.980;2023-12-20T04:09:37;10.90;91.30
10384;DHT22;5238;43.508;4.980;2023-12-20T04:12:05;10.90;91.30
10384;DHT22;5238;43.508;4.980;2023-12-20T04:14:32;10.90;91.30
10384;DHT22;5238;43.508;4.980;2023-12-20T04:16:59;10.90;91.30
10384;DHT22;5238;43.508;4.980;2023-12-20T04:19:26;11.00;91.30
10384;DHT22;5238;43.508;4.980;2023-12-20T04:21:54;11.00;91.30
10384;DHT22;5238;43.508;4.980;2023-12-20T04:24:20;11.00;91.30
10384;DHT22;5238;43.508;4.980;2023-12-20T04:26:48;11.00;91.30
10384;DHT22;5238;43.508;4.980;2023-12-20T04:29:15;11.00;91.30
10384;DHT22;5238;43.508;4.980;2023-12-20T04:31:42;11.10;91.30
10384;DHT22;5238;43.508;4.980;2023-12-20T04:34:09;11.00;91.30
10384;DHT22;5238;43.508;4.980;2023-12-20T04:36:36;11.00;91.30
10384;DHT22;5238;43.508;4.980;2023-12-20T04:39:04;11.10;91.30
10384;DHT22;5238;43.508;4.980;2023-12-20T04:41:32;11.10;91.30
10384;DHT22;5238;43.508;4.980;2023-12-20T04:43:59;11.10;91.30
10384;DHT22;5238;43.508;4.980;2023-12-20T04:46:26;11.10;91.30
10384;DHT22;5238;43.508;4.980;2023-12-20T04:48:53;11.10;91.30
10384;DHT22;5238;43.508;4.980;2023-12-20T04:51:21;11.10;91.30
10384;DHT22;5238;43.508;4.980;2023-12-20T04:53:48;11.10;91.30
10384;DHT22;5238;43.508;4.980;2023-12-20T04:56:16;11.10;91.30
10384;DHT22;5238;43.508;4.980;2023-12-20T04:58:43;11.10;91.30
10384;DHT22;5238;43.508;4.980;2023-12-20T05:01:10;11.00;91.30
10384;DHT22;5238;43.508;4.980;2023-12-20T05:03:38;11.00;91.30
10384;DHT22;5238;43.508;4.980;2023-12-20T05:06:05;10.90;91.30
10384;DHT22;5238;43.508;4.980;2023-12-20T05:08:32;10.90;91.30
10384;DHT22;5238;43.508;4.980;2023-12-20T05:10:59;10.90;91.30
10384;DHT22;5238;43.508;4.980;2023-12-20T05:13:27;10.90;91.30
10384;DHT22;5238;43.508;4.980;2023-12-20T05:15:55;10.90;91.30
10384;DHT22;5238;43.508;4.980;2023-12-20T05:18:22;10.80;91.30
10384;DHT22;5238;43.508;4.980;2023-12-20T05:20:49;10.80;91.30
10384;DHT22;5238;43.508;4.980;2023-12-20T05:23:17;10.80;91.30
10384;DHT22;5238;43.508;4.980;2023-12-20T05:25:44;10.70;91.30
10384;DHT22;5238;43.508;4.980;2023-12-20T05:28:11;10.70;91.30
10384;DHT22;5238;43.508;4.980;2023-12-20T05:30:39;10.70;91.30
10384;DHT22;5238;43.508;4.980;2023-12-20T05:33:07;10.70;91.30
10384;DHT22;5238;43.508;4.980;2023-12-20T05:35:34;10.70;91.30
10384;DHT22;5238;43.508;4.980;2023-12-20T05:38:01;10.80;91.30
10384;DHT22;5238;43.508;4.980;2023-12-20T05:40:28;10.80;91.30
10384;DHT22;5238;43.508;4.980;2023-12-20T05:42:55;10.80;91.30
10384;DHT22;5238;43.508;4.980;2023-12-20T05:45:22;10.80;91.30
10384;DHT22;5238;43.508;4.980;2023-12-20T05:47:50;10.80;91.30
10384;DHT22;5238;43.508;4.980;2023-12-20T05:50:17;10.90;91.30
10384;DHT22;5238;43.508;4.980;2023-12-20T05:52:44;10.90;91.30
10384;DHT22;5238;43.508;4.980;2023-12-20T05:55:11;10.90;91.30
10384;DHT22;5238;43.508;4.980;2023-12-20T05:57:38;10.90;91.30
10384;DHT22;5238;43.508;4.980;2023-12-20T06:00:06;10.90;91.30
10384;DHT22;5238;43.508;4.980;2023-12-20T06:02:35;10.90;91.30
10384;DHT22;5238;43.508;4.980;2023-12-20T06:05:04;10.90;91.30
10384;DHT22;5238;43.508;4.980;2023-12-20T06:07:31;10.90;91.30
10384;DHT22;5238;43.508;4.980;2023-12-20T06:09:58;10.90;91.30
10384;DHT22;5238;43.508;4.980;2023-12-20T06:12:25;11.00;91.30
10384;DHT22;5238;43.508;4.980;2023-12-20T06:14:53;11.00;91.30
10384;DHT22;5238;43.508;4.980;2023-12-20T06:17:20;11.10;91.30
10384;DHT22;5238;43.508;4.980;2023-12-20T06:19:47;11.20;91.30
10384;DHT22;5238;43.508;4.980;2023-12-20T06:22:15;11.30;91.30
10384;DHT22;5238;43.508;4.980;2023-12-20T06:24:42;11.50;91.30
10384;DHT22;5238;43.508;4.980;2023-12-20T06:27:09;11.60;91.30
10384;DHT22;5238;43.508;4.980;2023-12-20T06:29:37;11.80;91.30
10384;DHT22;5238;43.508;4.980;2023-12-20T06:32:04;11.80;91.30
10384;DHT22;5238;43.508;4.980;2023-12-20T06:34:31;11.90;91.30
10384;DHT22;5238;43.508;4.980;2023-12-20T06:36:58;12.00;91.30
10384;DHT22;5238;43.508;4.980;2023-12-20T06:39:27;12.00;91.30
10384;DHT22;5238;43.508;4.980;2023-12-20T06:41:54;12.10;91.30
10384;DHT22;5238;43.508;4.980;2023-12-20T06:44:21;12.10;91.30
10384;DHT22;5238;43.508;4.980;2023-12-20T06:46:48;12.10;91.30
10384;DHT22;5238;43.508;4.980;2023-12-20T06:49:15;12.20;91.30
10384;DHT22;5238;43.508;4.980;2023-12-20T06:51:42;12.20;91.30
10384;DHT22;5238;43.508;4.980;2023-12-20T06:54:09;12.20;91.30
10384;DHT22;5238;43.508;4.980;2023-12-20T06:56:38;12.20;91.30
10384;DHT22;5238;43.508;4.980;2023-12-20T06:59:05;12.20;91.30
10384;DHT22;5238;43.508;4.980;2023-12-20T07:01:32;12.20;91.30
10384;DHT22;5238;43.508;4.980;2023-12-20T07:03:59;12.30;91.30
10384;DHT22;5238;43.508;4.980;2023-12-20T07:06:26;12.20;91.30
10384;DHT22;5238;43.508;4.980;2023-12-20T07:08:53;12.20;91.30
10384;DHT22;5238;43.508;4.980;2023-12-20T07:11:20;12.20;91.30
10384;DHT22;5238;43.508;4.980;2023-12-20T07:13:48;12.20;91.30
10384;DHT22;5238;43.508;4.980;2023-12-20T07:16:15;12.20;91.30
10384;DHT22;5238;43.508;4.980;2023-12-20T07:18:42;12.20;91.30
10384;DHT22;5238;43.508;4.980;2023-12-20T07:21:09;12.20;91.30
10384;DHT22;5238;43.508;4.980;2023-12-20T07:23:36;12.20;91.30
10384;DHT22;5238;43.508;4.980;2023-12-20T07:26:03;12.20;91.30
10384;DHT22;5238;43.508;4.980;2023-12-20T07:28:31;12.20;91.30
10384;DHT22;5238;43.508;4.980;2023-12-20T07:30:59;12.10;91.30
10384;DHT22;5238;43.508;4.980;2023-12-20T07:33:26;12.10;91.30
10384;DHT22;5238;43.508;4.980;2023-12-20T07:35:53;12.20;91.30
10384;DHT22;5238;43.508;4.980;2023-12-20T07:38:20;12.20;91.30
10384;DHT22;5238;43.508;4.980;2023-12-20T07:40:47;12.20;91.30
10384;DHT22;5238;43.508;4.980;2023-12-20T07:43:14;12.20;91.30
10384;DHT22;5238;43.508;4.980;2023-12-20T07:45:41;12.20;91.30
10384;DHT22;5238;43.508;4.980;2023-12-20T07:48:10;12.20;91.30
10384;DHT22;5238;43.508;4.980;2023-12-20T07:50:37;12.20;91.30
10384;DHT22;5238;43.508;4.980;2023-12-20T07:53:04;12.20;91.30
10384;DHT22;5238;43.508;4.980;2023-12-20T07:55:31;12.20;91.30
10384;DHT22;5238;43.508;4.980;2023-12-20T07:57:58;12.20;91.30
10384;DHT22;5238;43.508;4.980;2023-12-20T08:00:26;12.20;91.30
10384;DHT22;5238;43.508;4.980;2023-12-20T08:02:53;12.20;91.30
10384;DHT22;5238;43.508;4.980;2023-12-20T08:05:21;12.30;91.30
10384;DHT22;5238;43.508;4.980;2023-12-20T08:07:48;12.30;91.30
10384;DHT22;5238;43.508;4.980;2023-12-20T08:10:15;12.30;91.30
10384;DHT22;5238;43.508;4.980;2023-12-20T08:12:43;12.40;91.30
10384;DHT22;5238;43.508;4.980;2023-12-20T08:15:11;12.50;91.30
10384;DHT22;5238;43.508;4.980;2023-12-20T08:17:37;12.60;91.30
10384;DHT22;5238;43.508;4.980;2023-12-20T08:20:06;12.60;91.30
10384;DHT22;5238;43.508;4.980;2023-12-20T08:22:34;12.70;91.30
10384;DHT22;5238;43.508;4.980;2023-12-20T08:25:01;12.80;91.30
10384;DHT22;5238;43.508;4.980;2023-12-20T08:27:28;12.90;91.30
10384;DHT22;5238;43.508;4.980;2023-12-20T08:29:57;13.00;91.30
10384;DHT22;5238;43.508;4.980;2023-12-20T08:32:25;13.10;91.30
10384;DHT22;5238;43.508;4.980;2023-12-20T08:34:53;13.20;91.30
10384;DHT22;5238;43.508;4.980;2023-12-20T08:37:20;13.20;91.30
10384;DHT22;5238;43.508;4.980;2023-12-20T08:39:48;13.20;91.30
10384;DHT22;5238;43.508;4.980;2023-12-20T08:42:15;13.20;91.30
10384;DHT22;5238;43.508;4.980;2023-12-20T08:44:42;13.20;91.30
10384;DHT22;5238;43.508;4.980;2023-12-20T08:47:09;13.20;91.30
10384;DHT22;5238;43.508;4.980;2023-12-20T08:49:38;13.20;91.30
10384;DHT22;5238;43.508;4.980;2023-12-20T08:52:05;13.20;91.30
10384;DHT22;5238;43.508;4.980;2023-12-20T08:54:32;13.20;91.30
10384;DHT22;5238;43.508;4.980;2023-12-20T08:57:01;13.20;91.30
10384;DHT22;5238;43.508;4.980;2023-12-20T08:59:29;13.10;91.30
10384;DHT22;5238;43.508;4.980;2023-12-20T09:01:56;13.10;91.30
10384;DHT22;5238;43.508;4.980;2023-12-20T09:04:23;13.10;91.30
10384;DHT22;5238;43.508;4.980;2023-12-20T09:06:50;13.10;91.30
10384;DHT22;5238;43.508;4.980;2023-12-20T09:09:17;13.10;91.30
10384;DHT22;5238;43.508;4.980;2023-12-20T09:11:45;13.00;91.30
10384;DHT22;5238;43.508;4.980;2023-12-20T09:14:15;13.00;91.30
10384;DHT22;5238;43.508;4.980;2023-12-20T09:16:43;13.00;91.30
10384;DHT22;5238;43.508;4.980;2023-12-20T09:19:10;13.00;91.30
10384;DHT22;5238;43.508;4.980;2023-12-20T09:21:37;12.90;91.30
10384;DHT22;5238;43.508;4.980;2023-12-20T09:24:04;12.90;91.30
10384;DHT22;5238;43.508;4.980;2023-12-20T09:26:31;12.90;91.30
10384;DHT22;5238;43.508;4.980;2023-12-20T09:28:58;12.90;91.30
10384;DHT22;5238;43.508;4.980;2023-12-20T09:31:26;12.90;91.30
10384;DHT22;5238;43.508;4.980;2023-12-20T09:33:53;12.90;91.30
10384;DHT22;5238;43.508;4.980;2023-12-20T09:36:20;13.00;91.30
10384;DHT22;5238;43.508;4.980;2023-12-20T09:38:47;13.00;91.30
10384;DHT22;5238;43.508;4.980;2023-12-20T09:41:14;13.00;91.30
10384;DHT22;5238;43.508;4.980;2023-12-20T09:43:42;13.10;91.30
10384;DHT22;5238;43.508;4.980;2023-12-20T09:46:12;13.00;91.30
10384;DHT22;5238;43.508;4.980;2023-12-20T09:48:42;13.00;91.30
10384;DHT22;5238;43.508;4.980;2023-12-20T09:51:09;13.00;91.30
10384;DHT22;5238;43.508;4.980;2023-12-20T09:53:37;13.00;91.30
10384;DHT22;5238;43.508;4.980;2023-12-20T09:56:06;13.00;91.30
10384;DHT22;5238;43.508;4.980;2023-12-20T09:58:36;13.00;91.30
10384;DHT22;5238;43.508;4.980;2023-12-20T10:01:03;12.90;91.30
10384;DHT22;5238;43.508;4.980;2023-12-20T10:03:31;12.90;91.30
10384;DHT22;5238;43.508;4.980;2023-12-20T10:06:00;12.90;91.30
10384;DHT22;5238;43.508;4.980;2023-12-20T10:08:27;12.90;91.30
10384;DHT22;5238;43.508;4.980;2023-12-20T10:10:55;12.90;91.30
10384;DHT22;5238;43.508;4.980;2023-12-20T10:13:28;12.90;91.30
10384;DHT22;5238;43.508;4.980;2023-12-20T10:15:55;12.90;91.30
10384;DHT22;5238;43.508;4.980;2023-12-20T10:18:23;12.90;91.30
10384;DHT22;5238;43.508;4.980;2023-12-20T10:20:50;12.90;91.30
10384;DHT22;5238;43.508;4.980;2023-12-20T10:23:18;12.90;91.30
10384;DHT22;5238;43.508;4.980;2023-12-20T10:25:56;12.90;91.30
10384;DHT22;5238;43.508;4.980;2023-12-20T10:28:23;12.90;91.30
10384;DHT22;5238;43.508;4.980;2023-12-20T10:30:53;12.90;91.30
10384;DHT22;5238;43.508;4.980;2023-12-20T10:33:24;13.00;91.30
10384;DHT22;5238;43.508;4.980;2023-12-20T10:35:52;13.00;91.30
10384;DHT22;5238;43.508;4.980;2023-12-20T10:38:21;13.00;91.30
10384;DHT22;5238;43.508;4.980;2023-12-20T10:40:49;13.10;91.30
10384;DHT22;5238;43.508;4.980;2023-12-20T10:43:20;13.10;91.30
10384;DHT22;5238;43.508;4.980;2023-12-20T10:45:48;13.10;91.30
10384;DHT22;5238;43.508;4.980;2023-12-20T10:48:16;13.10;91.30
10384;DHT22;5238;43.508;4.980;2023-12-20T10:50:43;13.20;91.30
10384;DHT22;5238;43.508;4.980;2023-12-20T10:53:12;13.20;91.30
10384;DHT22;5238;43.508;4.980;2023-12-20T10:55:41;13.20;91.30
10384;DHT22;5238;43.508;4.980;2023-12-20T10:58:09;13.20;91.30
10384;DHT22;5238;43.508;4.980;2023-12-20T11:00:41;13.30;91.30
10384;DHT22;5238;43.508;4.980;2023-12-20T11:03:11;13.30;91.30
10384;DHT22;5238;43.508;4.980;2023-12-20T11:05:44;13.30;91.30
10384;DHT22;5238;43.508;4.980;2023-12-20T11:08:19;13.40;91.30
10384;DHT22;5238;43.508;4.980;2023-12-20T11:10:56;13.40;91.30
10384;DHT22;5238;43.508;4.980;2023-12-20T11:13:30;13.40;91.30
10384;DHT22;5238;43.508;4.980;2023-12-20T11:15:58;13.40;91.30
10384;DHT22;5238;43.508;4.980;2023-12-20T11:18:29;13.40;91.30
10384;DHT22;5238;43.508;4.980;2023-12-20T11:21:00;13.30;91.30
10384;DHT22;5238;43.508;4.980;2023-12-20T11:23:30;13.30;91.30
10384;DHT22;5238;43.508;4.980;2023-12-20T11:26:01;13.30;91.30
10384;DHT22;5238;43.508;4.980;2023-12-20T11:28:29;13.30;91.30
10384;DHT22;5238;43.508;4.980;2023-12-20T11:31:00;13.30;91.30
10384;DHT22;5238;43.508;4.980;2023-12-20T11:33:30;13.30;91.30
10384;DHT22;5238;43.508;4.980;2023-12-20T11:35:58;13.20;91.30
10384;DHT22;5238;43.508;4.980;2023-12-20T11:38:26;13.20;91.30
10384;DHT22;5238;43.508;4.980;2023-12-20T11:40:54;13.10;91.30
10384;DHT22;5238;43.508;4.980;2023-12-20T11:43:34;13.10;91.30
10384;DHT22;5238;43.508;4.980;2023-12-20T11:46:05;13.00;91.30
10384;DHT22;5238;43.508;4.980;2023-12-20T11:48:34;13.00;91.30
10384;DHT22;5238;43.508;4.980;2023-12-20T11:51:08;12.90;91.30
10384;DHT22;5238;43.508;4.980;2023-12-20T11:53:35;13.00;91.30
10384;DHT22;5238;43.508;4.980;2023-12-20T11:56:03;13.00;91.30
10384;DHT22;5238;43.508;4.980;2023-12-20T11:58:31;13.00;91.30
10384;DHT22;5238;43.508;4.980;2023-12-20T12:00:58;13.10;91.30
10384;DHT22;5238;43.508;4.980;2023-12-20T12:03:26;13.20;91.30
10384;DHT22;5238;43.508;4.980;2023-12-20T12:05:53;13.30;91.30
10384;DHT22;5238;43.508;4.980;2023-12-20T12:08:20;13.40;91.30
10384;DHT22;5238;43.508;4.980;2023-12-20T12:10:47;13.50;91.30
10384;DHT22;5238;43.508;4.980;2023-12-20T12:13:14;13.50;91.30
10384;DHT22;5238;43.508;4.980;2023-12-20T12:15:42;13.60;91.30
10384;DHT22;5238;43.508;4.980;2023-12-20T12:18:10;13.70;91.30
10384;DHT22;5238;43.508;4.980;2023-12-20T12:20:37;13.80;91.30
10384;DHT22;5238;43.508;4.980;2023-12-20T12:23:05;13.80;91.30
10384;DHT22;5238;43.508;4.980;2023-12-20T12:25:34;13.90;91.30
10384;DHT22;5238;43.508;4.980;2023-12-20T12:28:02;13.90;91.30
10384;DHT22;5238;43.508;4.980;2023-12-20T12:30:29;13.90;91.30
10384;DHT22;5238;43.508;4.980;2023-12-20T12:32:57;13.90;91.30
10384;DHT22;5238;43.508;4.980;2023-12-20T12:35:28;13.90;91.30
10384;DHT22;5238;43.508;4.980;2023-12-20T12:37:55;13.90;91.30
10384;DHT22;5238;43.508;4.980;2023-12-20T12:40:22;13.90;91.30
10384;DHT22;5238;43.508;4.980;2023-12-20T12:42:49;13.90;91.30
10384;DHT22;5238;43.508;4.980;2023-12-20T12:45:16;13.90;91.30
10384;DHT22;5238;43.508;4.980;2023-12-20T12:47:43;13.90;91.30
10384;DHT22;5238;43.508;4.980;2023-12-20T12:50:11;13.90;91.30
10384;DHT22;5238;43.508;4.980;2023-12-20T12:52:38;13.90;91.30
10384;DHT22;5238;43.508;4.980;2023-12-20T12:55:06;13.90;91.30
10384;DHT22;5238;43.508;4.980;2023-12-20T12:57:33;13.90;91.30
10384;DHT22;5238;43.508;4.980;2023-12-20T13:00:00;13.90;91.30
10384;DHT22;5238;43.508;4.980;2023-12-20T13:02:28;14.00;91.30
10384;DHT22;5238;43.508;4.980;2023-12-20T13:04:56;14.00;91.30
10384;DHT22;5238;43.508;4.980;2023-12-20T13:07:24;14.00;91.30
10384;DHT22;5238;43.508;4.980;2023-12-20T13:09:51;14.00;91.30
10384;DHT22;5238;43.508;4.980;2023-12-20T13:12:18;14.00;91.30
10384;DHT22;5238;43.508;4.980;2023-12-20T13:14:45;14.00;91.30
10384;DHT22;5238;43.508;4.980;2023-12-20T13:17:12;13.90;91.30
10384;DHT22;5238;43.508;4.980;2023-12-20T13:19:39;14.00;91.30
10384;DHT22;5238;43.508;4.980;2023-12-20T13:22:06;13.90;91.30
10384;DHT22;5238;43.508;4.980;2023-12-20T13:24:35;14.00;91.30
10384;DHT22;5238;43.508;4.980;2023-12-20T13:27:02;14.00;91.30
10384;DHT22;5238;43.508;4.980;2023-12-20T13:29:29;14.00;91.30
10384;DHT22;5238;43.508;4.980;2023-12-20T13:31:56;14.00;91.30
10384;DHT22;5238;43.508;4.980;2023-12-20T13:34:24;14.00;91.30
10384;DHT22;5238;43.508;4.980;2023-12-20T13:36:51;14.00;91.30
10384;DHT22;5238;43.508;4.980;2023-12-20T13:39:18;13.90;91.30
10384;DHT22;5238;43.508;4.980;2023-12-20T13:41:46;14.00;91.30
10384;DHT22;5238;43.508;4.980;2023-12-20T13:44:13;13.90;91.30
10384;DHT22;5238;43.508;4.980;2023-12-20T13:46:40;13.90;91.30
10384;DHT22;5238;43.508;4.980;2023-12-20T13:49:07;13.90;91.30
10384;DHT22;5238;43.508;4.980;2023-12-20T13:51:34;13.90;91.30
10384;DHT22;5238;43.508;4.980;2023-12-20T13:54:01;13.90;91.30
10384;DHT22;5238;43.508;4.980;2023-12-20T13:56:28;13.90;91.30
10384;DHT22;5238;43.508;4.980;2023-12-20T13:58:57;13.80;91.30
10384;DHT22;5238;43.508;4.980;2023-12-20T14:01:25;13.80;91.30
10384;DHT22;5238;43.508;4.980;2023-12-20T14:03:52;13.80;91.30
10384;DHT22;5238;43.508;4.980;2023-12-20T14:06:19;13.80;91.30
10384;DHT22;5238;43.508;4.980;2023-12-20T14:08:46;13.70;91.30
10384;DHT22;5238;43.508;4.980;2023-12-20T14:11:13;13.70;91.30
10384;DHT22;5238;43.508;4.980;2023-12-20T14:13:41;13.70;91.30
10384;DHT22;5238;43.508;4.980;2023-12-20T14:16:10;13.70;91.30
10384;DHT22;5238;43.508;4.980;2023-12-20T14:18:38;13.60;91.30
10384;DHT22;5238;43.508;4.980;2023-12-20T14:21:05;13.60;91.30
10384;DHT22;5238;43.508;4.980;2023-12-20T14:23:33;13.60;91.30
10384;DHT22;5238;43.508;4.980;2023-12-20T14:26:00;13.60;91.30
10384;DHT22;5238;43.508;4.980;2023-12-20T14:28:28;13.60;91.30
10384;DHT22;5238;43.508;4.980;2023-12-20T14:30:54;13.50;91.30
10384;DHT22;5238;43.508;4.980;2023-12-20T14:33:23;13.50;91.30
10384;DHT22;5238;43.508;4.980;2023-12-20T14:35:51;13.50;91.30
10384;DHT22;5238;43.508;4.980;2023-12-20T14:38:18;13.50;91.30
10384;DHT22;5238;43.508;4.980;2023-12-20T14:40:46;13.50;91.30
10384;DHT22;5238;43.508;4.980;2023-12-20T14:43:13;13.40;91.30
10384;DHT22;5238;43.508;4.980;2023-12-20T14:45:40;13.40;91.30
10384;DHT22;5238;43.508;4.980;2023-12-20T14:48:07;13.40;91.30
10384;DHT22;5238;43.508;4.980;2023-12-20T14:50:36;13.40;91.30
10384;DHT22;5238;43.508;4.980;2023-12-20T14:53:03;13.30;91.30
10384;DHT22;5238;43.508;4.980;2023-12-20T14:55:30;13.30;91.30
10384;DHT22;5238;43.508;4.980;2023-12-20T14:57:57;13.30;91.30
10384;DHT22;5238;43.508;4.980;2023-12-20T15:00:25;13.30;91.30
10384;DHT22;5238;43.508;4.980;2023-12-20T15:02:52;13.30;91.30
10384;DHT22;5238;43.508;4.980;2023-12-20T15:05:19;13.20;91.30
10384;DHT22;5238;43.508;4.980;2023-12-20T15:07:48;13.20;91.30
10384;DHT22;5238;43.508;4.980;2023-12-20T15:10:15;13.20;91.30
10384;DHT22;5238;43.508;4.980;2023-12-20T15:12:43;13.10;91.30
10384;DHT22;5238;43.508;4.980;2023-12-20T15:15:11;13.10;91.30
10384;DHT22;5238;43.508;4.980;2023-12-20T15:17:39;13.10;91.30
10384;DHT22;5238;43.508;4.980;2023-12-20T15:20:07;13.00;91.30
10384;DHT22;5238;43.508;4.980;2023-12-20T15:22:35;13.00;91.30
10384;DHT22;5238;43.508;4.980;2023-12-20T15:25:05;12.90;91.30
10384;DHT22;5238;43.508;4.980;2023-12-20T15:27:34;12.80;91.30
10384;DHT22;5238;43.508;4.980;2023-12-20T15:30:04;12.80;91.30
10384;DHT22;5238;43.508;4.980;2023-12-20T15:32:32;12.80;91.30
10384;DHT22;5238;43.508;4.980;2023-12-20T15:35:02;12.70;91.30
10384;DHT22;5238;43.508;4.980;2023-12-20T15:37:29;12.60;91.30
10384;DHT22;5238;43.508;4.980;2023-12-20T15:39:56;12.60;91.30
10384;DHT22;5238;43.508;4.980;2023-12-20T15:42:25;12.50;91.30
10384;DHT22;5238;43.508;4.980;2023-12-20T15:44:52;12.50;91.30
10384;DHT22;5238;43.508;4.980;2023-12-20T15:47:19;12.50;91.30
10384;DHT22;5238;43.508;4.980;2023-12-20T15:49:46;12.40;91.30
10384;DHT22;5238;43.508;4.980;2023-12-20T15:52:15;12.40;91.30